createdAt,value
2018-09-06T00:00:23.818Z,99.68
2018-09-06T00:01:34.284Z,99.39
2018-09-06T00:02:44.300Z,99.29
2018-09-06T00:03:54.289Z,99.1
2018-09-06T00:05:04.379Z,99.1
2018-09-06T00:06:14.660Z,99.49
2018-09-06T00:07:24.622Z,99.99
2018-09-06T00:08:34.822Z,99.77
2018-09-06T00:09:44.989Z,99.87
2018-09-06T00:10:55.822Z,99.99
2018-09-06T00:12:13.826Z,99.99
2018-09-06T00:13:23.759Z,99.82
2018-09-06T00:14:33.969Z,99.99
2018-09-06T00:15:44.367Z,99.99
2018-09-06T00:16:55.012Z,99.99
2018-09-06T00:18:06.260Z,99.99
2018-09-06T00:19:16.267Z,99.99
2018-09-06T00:20:28.669Z,99.99
2018-09-06T00:21:40.248Z,99.99
2018-09-06T00:22:53.094Z,99.99
2018-09-06T00:24:04.315Z,99.99
2018-09-06T00:25:16.966Z,99.99
2018-09-06T00:26:30.202Z,99.99
2018-09-06T00:27:40.406Z,99.99
2018-09-06T00:28:56.952Z,99.99
2018-09-06T00:30:08.368Z,99.99
2018-09-06T00:31:19.370Z,99.99
2018-09-06T00:32:31.633Z,99.99
2018-09-06T00:33:42.726Z,99.99
2018-09-06T00:34:52.456Z,99.99
2018-09-06T00:36:02.430Z,99.99
2018-09-06T00:37:12.411Z,99.99
2018-09-06T00:38:22.380Z,99.99
2018-09-06T00:39:32.081Z,99.99
2018-09-06T00:40:42.040Z,99.99
2018-09-06T00:41:52.011Z,99.99
2018-09-06T00:43:01.713Z,99.99
2018-09-06T00:44:11.422Z,99.99
2018-09-06T00:45:20.871Z,99.99
2018-09-06T00:46:30.837Z,99.99
2018-09-06T00:47:40.804Z,99.99
2018-09-06T00:48:50.507Z,99.99
2018-09-06T00:50:00.216Z,99.99
2018-09-06T00:51:10.172Z,99.99
2018-09-06T00:52:20.163Z,99.99
2018-09-06T00:53:30.141Z,99.99
2018-09-06T00:54:39.870Z,99.99
2018-09-06T00:55:49.841Z,99.99
2018-09-06T00:56:59.620Z,99.99
2018-09-06T00:58:09.586Z,99.99
2018-09-06T00:59:19.289Z,99.99
2018-09-06T01:00:29.289Z,99.99
2018-09-06T01:01:39.256Z,99.99
2018-09-06T01:02:49.227Z,99.99
2018-09-06T01:03:58.942Z,99.99
2018-09-06T01:05:08.902Z,99.99
2018-09-06T01:06:18.609Z,99.99
2018-09-06T01:07:28.574Z,99.99
2018-09-06T01:08:38.538Z,99.99
2018-09-06T01:09:48.237Z,99.99
2018-09-06T01:10:57.942Z,99.99
2018-09-06T01:12:07.910Z,99.99
2018-09-06T01:13:17.621Z,99.99
2018-09-06T01:14:27.588Z,99.99
2018-09-06T01:15:37.289Z,99.99
2018-09-06T01:16:46.997Z,99.99
2018-09-06T01:17:56.708Z,99.99
2018-09-06T01:19:06.416Z,99.99
2018-09-06T01:20:16.392Z,99.99
2018-09-06T01:21:26.347Z,99.99
2018-09-06T01:22:36.053Z,99.99
2018-09-06T01:23:46.023Z,99.99
2018-09-06T01:24:55.990Z,99.99
2018-09-06T01:26:05.950Z,99.99
2018-09-06T01:27:15.646Z,99.99
2018-09-06T01:28:25.362Z,99.99
2018-09-06T01:29:35.062Z,99.99
2018-09-06T01:30:44.518Z,99.99
2018-09-06T01:31:54.473Z,99.99
2018-09-06T01:33:04.186Z,99.99
2018-09-06T01:34:14.218Z,99.99
2018-09-06T01:35:24.178Z,99.99
2018-09-06T01:36:34.148Z,99.99
2018-09-06T01:37:44.115Z,99.99
2018-09-06T01:38:54.078Z,99.99
2018-09-06T01:40:03.778Z,99.99
2018-09-06T01:41:13.744Z,99.99
2018-09-06T01:42:23.718Z,99.99
2018-09-06T01:43:33.719Z,99.99
2018-09-06T01:44:43.751Z,99.99
2018-09-06T01:45:53.464Z,99.99
2018-09-06T01:47:03.431Z,99.99
2018-09-06T01:48:13.120Z,99.99
2018-09-06T01:49:23.075Z,99.99
2018-09-06T01:50:33.053Z,99.99
2018-09-06T01:51:42.750Z,99.99
2018-09-06T01:52:52.705Z,99.99
2018-09-06T01:54:02.655Z,99.99
2018-09-06T01:55:12.125Z,99.99
2018-09-06T01:56:21.841Z,99.99
2018-09-06T01:57:31.806Z,99.99
2018-09-06T01:58:41.515Z,99.99
2018-09-06T01:59:51.512Z,99.99
2018-09-06T02:01:01.492Z,99.99
2018-09-06T02:02:11.464Z,99.99
2018-09-06T02:03:21.428Z,99.99
2018-09-06T02:04:31.380Z,99.99
2018-09-06T02:05:41.074Z,99.99
2018-09-06T02:06:50.779Z,99.99
2018-09-06T02:08:00.730Z,99.99
2018-09-06T02:09:10.689Z,99.99
2018-09-06T02:10:20.648Z,99.99
2018-09-06T02:11:30.616Z,99.99
2018-09-06T02:12:40.566Z,99.99
2018-09-06T02:13:50.524Z,99.99
2018-09-06T02:15:00.501Z,99.99
2018-09-06T02:16:10.200Z,99.99
2018-09-06T02:17:20.166Z,99.99
2018-09-06T02:18:30.123Z,99.99
2018-09-06T02:19:40.086Z,99.99
2018-09-06T02:20:50.042Z,99.99
2018-09-06T02:22:00.004Z,99.99
2018-09-06T02:23:09.960Z,99.99
2018-09-06T02:24:19.937Z,99.99
2018-09-06T02:25:30.172Z,99.99
2018-09-06T02:26:39.872Z,99.99
2018-09-06T02:27:49.829Z,99.99
2018-09-06T02:28:59.535Z,99.99
2018-09-06T02:30:09.234Z,99.99
2018-09-06T02:31:19.186Z,99.99
2018-09-06T02:32:29.167Z,99.99
2018-09-06T02:33:38.876Z,99.99
2018-09-06T02:34:48.849Z,99.99
2018-09-06T02:35:58.810Z,99.99
2018-09-06T02:37:08.528Z,99.99
2018-09-06T02:38:18.240Z,99.99
2018-09-06T02:39:28.195Z,99.99
2018-09-06T02:40:38.145Z,99.99
2018-09-06T02:41:48.111Z,99.99
2018-09-06T02:42:57.810Z,99.99
2018-09-06T02:44:07.802Z,99.99
2018-09-06T02:45:17.770Z,99.99
2018-09-06T02:46:27.470Z,99.99
2018-09-06T02:47:37.427Z,99.99
2018-09-06T02:48:46.616Z,99.99
2018-09-06T02:49:56.594Z,99.99
2018-09-06T02:51:05.789Z,99.99
2018-09-06T02:52:15.750Z,99.99
2018-09-06T02:53:25.205Z,99.99
2018-09-06T02:54:35.173Z,99.99
2018-09-06T02:55:44.892Z,99.99
2018-09-06T02:56:54.835Z,99.99
2018-09-06T02:58:04.800Z,99.99
2018-09-06T02:59:14.500Z,99.99
2018-09-06T03:00:24.663Z,99.99
2018-09-06T03:01:34.623Z,99.99
2018-09-06T03:02:44.079Z,99.99
2018-09-06T03:03:54.032Z,99.99
2018-09-06T03:05:04.002Z,99.99
2018-09-06T03:06:13.964Z,99.99
2018-09-06T03:07:23.924Z,99.99
2018-09-06T03:08:34.124Z,99.99
2018-09-06T03:09:43.829Z,99.99
2018-09-06T03:10:53.814Z,99.99
2018-09-06T03:12:03.818Z,99.99
2018-09-06T03:13:13.531Z,99.99
2018-09-06T03:14:23.516Z,99.99
2018-09-06T03:15:33.530Z,99.99
2018-09-06T03:16:43.536Z,99.99
2018-09-06T03:17:52.993Z,99.99
2018-09-06T03:19:02.961Z,99.99
2018-09-06T03:20:12.907Z,99.99
2018-09-06T03:21:22.623Z,99.99
2018-09-06T03:22:32.578Z,99.99
2018-09-06T03:23:42.288Z,99.99
2018-09-06T03:24:52.254Z,99.99
2018-09-06T03:26:02.205Z,99.99
2018-09-06T03:27:12.132Z,99.99
2018-09-06T03:28:22.089Z,99.99
2018-09-06T03:29:31.791Z,99.99
2018-09-06T03:30:41.754Z,99.99
2018-09-06T03:31:51.487Z,99.99
2018-09-06T03:33:01.190Z,99.99
2018-09-06T03:34:11.153Z,99.99
2018-09-06T03:35:21.129Z,99.99
2018-09-06T03:36:31.086Z,99.99
2018-09-06T03:37:41.036Z,99.99
2018-09-06T03:38:50.989Z,99.99
2018-09-06T03:40:00.954Z,99.99
2018-09-06T03:41:10.648Z,99.99
2018-09-06T03:42:20.345Z,99.99
2018-09-06T03:43:30.311Z,99.99
2018-09-06T03:44:39.751Z,99.99
2018-09-06T03:45:49.719Z,99.99
2018-09-06T03:46:59.693Z,99.99
2018-09-06T03:48:09.662Z,99.99
2018-09-06T03:49:19.630Z,99.99
2018-09-06T03:50:29.591Z,99.99
2018-09-06T03:51:39.293Z,99.99
2018-09-06T03:52:49.246Z,99.99
2018-09-06T03:53:58.963Z,99.99
2018-09-06T03:55:08.940Z,99.99
2018-09-06T03:56:18.917Z,99.99
2018-09-06T03:57:28.611Z,99.99
2018-09-06T03:58:38.576Z,99.99
2018-09-06T03:59:48.538Z,99.99
2018-09-06T04:00:58.253Z,99.99
2018-09-06T04:02:07.990Z,99.99
2018-09-06T04:03:17.953Z,99.99
2018-09-06T04:04:27.903Z,99.99
2018-09-06T04:05:37.887Z,99.99
2018-09-06T04:06:47.849Z,99.99
2018-09-06T04:07:57.808Z,99.99
2018-09-06T04:09:07.773Z,99.99
2018-09-06T04:10:17.491Z,99.99
2018-09-06T04:11:27.468Z,99.99
2018-09-06T04:12:37.166Z,99.99
2018-09-06T04:13:46.901Z,99.99
2018-09-06T04:14:56.857Z,99.99
2018-09-06T04:16:06.822Z,99.99
2018-09-06T04:17:16.802Z,99.99
2018-09-06T04:18:26.595Z,99.99
2018-09-06T04:19:36.583Z,99.99
2018-09-06T04:20:46.035Z,99.99
2018-09-06T04:21:56.021Z,99.99
2018-09-06T04:23:05.729Z,99.99
2018-09-06T04:24:15.466Z,99.99
2018-09-06T04:25:25.471Z,99.99
2018-09-06T04:26:35.443Z,99.99
2018-09-06T04:27:45.177Z,99.99
2018-09-06T04:28:55.142Z,99.99
2018-09-06T04:30:05.106Z,99.99
2018-09-06T04:31:15.285Z,99.99
2018-09-06T04:32:25.264Z,99.99
2018-09-06T04:33:35.229Z,99.99
2018-09-06T04:34:45.190Z,99.99
2018-09-06T04:35:55.236Z,99.99
2018-09-06T04:37:05.097Z,99.99
2018-09-06T04:38:15.047Z,99.99
2018-09-06T04:39:25.007Z,99.99
2018-09-06T04:40:34.976Z,99.99
2018-09-06T04:41:44.687Z,99.99
2018-09-06T04:42:54.649Z,99.99
2018-09-06T04:44:04.631Z,99.99
2018-09-06T04:45:14.607Z,99.99
2018-09-06T04:46:24.579Z,99.99
2018-09-06T04:47:34.300Z,99.99
2018-09-06T04:48:44.262Z,99.99
2018-09-06T04:49:54.254Z,99.99
2018-09-06T04:51:03.993Z,99.99
2018-09-06T04:52:13.993Z,99.99
2018-09-06T04:53:23.706Z,99.99
2018-09-06T04:54:33.663Z,99.99
2018-09-06T04:55:43.383Z,99.99
2018-09-06T04:56:53.352Z,99.99
2018-09-06T04:58:03.338Z,99.99
2018-09-06T04:59:13.314Z,99.99
2018-09-06T05:00:23.300Z,99.99
2018-09-06T05:01:32.756Z,99.99
2018-09-06T05:02:42.734Z,99.99
2018-09-06T05:03:52.480Z,99.99
2018-09-06T05:05:02.457Z,99.99
2018-09-06T05:06:12.433Z,99.99
2018-09-06T05:07:21.887Z,99.99
2018-09-06T05:08:31.591Z,99.99
2018-09-06T05:09:41.561Z,99.99
2018-09-06T05:10:51.255Z,99.99
2018-09-06T05:12:01.212Z,99.99
2018-09-06T05:13:11.184Z,99.99
2018-09-06T05:14:20.893Z,99.99
2018-09-06T05:15:30.624Z,99.99
2018-09-06T05:16:40.587Z,99.99
2018-09-06T05:17:50.544Z,99.99
2018-09-06T05:19:00.520Z,99.99
2018-09-06T05:20:10.496Z,99.99
2018-09-06T05:21:20.221Z,99.99
2018-09-06T05:22:30.189Z,99.99
2018-09-06T05:23:40.201Z,99.99
2018-09-06T05:24:50.179Z,99.99
2018-09-06T05:26:00.146Z,99.99
2018-09-06T05:27:10.123Z,99.99
2018-09-06T05:28:20.084Z,99.99
2018-09-06T05:29:29.788Z,99.99
2018-09-06T05:30:39.865Z,99.99
2018-09-06T05:31:50.014Z,99.99
2018-09-06T05:32:59.988Z,99.99
2018-09-06T05:34:09.954Z,99.99
2018-09-06T05:35:19.743Z,99.99
2018-09-06T05:36:29.589Z,99.99
2018-09-06T05:37:39.317Z,99.99
2018-09-06T05:38:49.251Z,99.99
2018-09-06T05:39:58.699Z,99.99
2018-09-06T05:41:08.412Z,99.99
2018-09-06T05:42:18.126Z,99.99
2018-09-06T05:43:28.104Z,99.99
2018-09-06T05:44:37.825Z,99.99
2018-09-06T05:45:47.532Z,99.99
2018-09-06T05:46:57.236Z,99.99
2018-09-06T05:48:07.207Z,99.99
2018-09-06T05:49:16.943Z,99.99
2018-09-06T05:50:26.915Z,99.99
2018-09-06T05:51:36.374Z,99.99
2018-09-06T05:52:45.819Z,99.99
2018-09-06T05:53:55.537Z,99.99
2018-09-06T05:55:05.507Z,99.99
2018-09-06T05:56:15.204Z,99.99
2018-09-06T05:57:25.180Z,99.99
2018-09-06T05:58:35.142Z,99.99
2018-09-06T05:59:45.360Z,99.99
2018-09-06T06:00:54.803Z,99.99
2018-09-06T06:02:04.516Z,99.99
2018-09-06T06:03:14.474Z,99.99
2018-09-06T06:04:24.434Z,99.99
2018-09-06T06:05:34.168Z,99.99
2018-09-06T06:06:44.122Z,99.99
2018-09-06T06:07:53.821Z,99.99
2018-09-06T06:09:03.801Z,99.99
2018-09-06T06:10:13.770Z,99.99
2018-09-06T06:11:23.756Z,99.99
2018-09-06T06:12:33.720Z,99.99
2018-09-06T06:13:43.438Z,99.99
2018-09-06T06:14:53.385Z,99.99
2018-09-06T06:16:03.513Z,99.99
2018-09-06T06:17:13.069Z,99.99
2018-09-06T06:18:23.045Z,99.99
2018-09-06T06:19:33.011Z,99.99
2018-09-06T06:20:42.972Z,99.99
2018-09-06T06:21:52.950Z,99.99
2018-09-06T06:23:02.940Z,99.99
2018-09-06T06:24:12.925Z,99.99
2018-09-06T06:25:22.905Z,99.99
2018-09-06T06:26:32.866Z,99.99
2018-09-06T06:27:42.581Z,99.99
2018-09-06T06:28:52.588Z,99.99
2018-09-06T06:30:02.571Z,99.99
2018-09-06T06:31:12.282Z,99.99
2018-09-06T06:32:22.165Z,99.99
2018-09-06T06:33:32.402Z,99.99
2018-09-06T06:34:42.372Z,99.99
2018-09-06T06:35:52.334Z,99.99
2018-09-06T06:37:02.312Z,99.99
2018-09-06T06:38:12.041Z,99.99
2018-09-06T06:39:22.037Z,99.99
2018-09-06T06:40:32.003Z,99.99
2018-09-06T06:41:41.978Z,99.99
2018-09-06T06:42:51.953Z,99.99
2018-09-06T06:44:01.943Z,99.99
2018-09-06T06:45:11.917Z,99.99
2018-09-06T06:46:21.897Z,99.99
2018-09-06T06:47:31.856Z,99.99
2018-09-06T06:48:41.311Z,99.99
2018-09-06T06:49:51.299Z,99.99
2018-09-06T06:51:01.300Z,99.99
2018-09-06T06:52:10.502Z,99.99
2018-09-06T06:53:20.481Z,99.99
2018-09-06T06:54:30.460Z,99.99
2018-09-06T06:55:40.504Z,99.99
2018-09-06T06:56:50.220Z,99.99
2018-09-06T06:57:59.932Z,99.99
2018-09-06T06:59:09.646Z,99.99
2018-09-06T07:00:19.646Z,99.99
2018-09-06T07:01:29.625Z,99.99
2018-09-06T07:02:39.093Z,99.99
2018-09-06T07:03:49.146Z,99.99
2018-09-06T07:04:59.146Z,99.99
2018-09-06T07:06:09.163Z,99.99
2018-09-06T07:07:19.352Z,99.99
2018-09-06T07:08:29.333Z,99.99
2018-09-06T07:09:39.067Z,99.99
2018-09-06T07:10:49.065Z,99.99
2018-09-06T07:11:59.037Z,99.99
2018-09-06T07:13:09.014Z,99.99
2018-09-06T07:14:18.992Z,99.99
2018-09-06T07:15:28.978Z,99.99
2018-09-06T07:16:38.704Z,99.99
2018-09-06T07:17:48.694Z,99.99
2018-09-06T07:18:58.686Z,99.99
2018-09-06T07:20:08.656Z,99.99
2018-09-06T07:21:18.641Z,99.99
2018-09-06T07:22:28.624Z,99.99
2018-09-06T07:23:38.584Z,99.99
2018-09-06T07:24:48.545Z,99.99
2018-09-06T07:25:58.524Z,99.99
2018-09-06T07:27:08.243Z,99.99
2018-09-06T07:28:18.213Z,99.99
2018-09-06T07:29:27.936Z,99.99
2018-09-06T07:30:38.411Z,99.99
2018-09-06T07:31:48.443Z,99.99
2018-09-06T07:32:58.416Z,99.99
2018-09-06T07:34:08.397Z,99.99
2018-09-06T07:35:18.523Z,99.99
2018-09-06T07:36:28.521Z,99.99
2018-09-06T07:37:38.256Z,99.99
2018-09-06T07:38:48.242Z,99.99
2018-09-06T07:39:58.211Z,99.99
2018-09-06T07:41:08.253Z,99.99
2018-09-06T07:42:18.181Z,99.99
2018-09-06T07:43:27.883Z,99.73
2018-09-06T07:44:37.604Z,99.25
2018-09-06T07:45:47.568Z,98.63
2018-09-06T07:46:56.809Z,98.39
2018-09-06T07:48:06.973Z,98.44
2018-09-06T07:49:16.952Z,98.82
2018-09-06T07:50:26.663Z,98.44
2018-09-06T07:51:36.589Z,97.76
2018-09-06T07:52:46.631Z,96.51
2018-09-06T07:53:56.625Z,95.45
2018-09-06T07:55:06.618Z,95.45
2018-09-06T07:56:16.349Z,95.12
2018-09-06T07:57:26.367Z,95.7
2018-09-06T07:58:36.659Z,94.15
2018-09-06T07:59:46.725Z,94.35
2018-09-06T08:00:56.468Z,94.25
2018-09-06T08:02:06.485Z,93.96
2018-09-06T08:03:16.553Z,94.15
2018-09-06T08:04:26.530Z,93.68
2018-09-06T08:05:36.769Z,93.68
2018-09-06T08:06:46.777Z,92.71
2018-09-06T08:07:56.808Z,92.38
2018-09-06T08:09:06.817Z,91.51
2018-09-06T08:10:17.235Z,90.93
2018-09-06T08:11:26.957Z,90.35
2018-09-06T08:12:36.939Z,90.59
2018-09-06T08:13:46.394Z,90.2
2018-09-06T08:14:56.418Z,89.72
2018-09-06T08:16:06.409Z,89.43
2018-09-06T08:17:16.385Z,88.67
2018-09-06T08:18:26.375Z,88.81
2018-09-06T08:19:36.401Z,88.04
2018-09-06T08:20:46.397Z,87.65
2018-09-06T08:21:56.141Z,86.4
2018-09-06T08:23:06.138Z,85.86
2018-09-06T08:24:15.981Z,83.84
2018-09-06T08:25:25.900Z,82.62
2018-09-06T08:26:35.885Z,80.64
2018-09-06T08:27:45.609Z,80.16
2018-09-06T08:28:55.611Z,79.43
2018-09-06T08:30:05.116Z,79.52
2018-09-06T08:31:15.021Z,79.33
2018-09-06T08:32:24.914Z,77.63
2018-09-06T08:33:34.654Z,76.09
2018-09-06T08:34:44.657Z,74.48
2018-09-06T08:35:54.638Z,74.58
2018-09-06T08:37:04.642Z,73.84
2018-09-06T08:38:14.352Z,73.74
2018-09-06T08:39:24.338Z,73.65
2018-09-06T08:40:34.314Z,73.07
2018-09-06T08:41:44.294Z,72.33
2018-09-06T08:42:54.056Z,71.08
2018-09-06T08:44:03.781Z,70.82
2018-09-06T08:45:13.839Z,69.85
2018-09-06T08:46:23.983Z,68.88
2018-09-06T08:47:34.051Z,69.31
2018-09-06T08:48:43.985Z,69.79
2018-09-06T08:49:53.738Z,69.89
2018-09-06T08:51:03.760Z,69.11
2018-09-06T08:52:13.775Z,69.01
2018-09-06T08:53:23.927Z,68.53
2018-09-06T08:54:33.911Z,68.05
2018-09-06T08:55:43.649Z,67.76
2018-09-06T08:56:53.647Z,68.88
2018-09-06T08:58:03.396Z,68.05
2018-09-06T08:59:13.135Z,66.53
2018-09-06T09:00:23.141Z,65.95
2018-09-06T09:01:33.158Z,66.08
2018-09-06T09:02:43.434Z,66.92
2018-09-06T09:03:53.807Z,66.72
2018-09-06T09:05:03.314Z,66.24
2018-09-06T09:06:13.060Z,65.3
2018-09-06T09:07:23.108Z,64.72
2018-09-06T09:08:33.420Z,64.53
2018-09-06T09:09:43.481Z,63.95
2018-09-06T09:10:53.514Z,62.13
2018-09-06T09:12:02.970Z,61.98
2018-09-06T09:13:13.249Z,61.1
2018-09-06T09:14:23.542Z,61.78
2018-09-06T09:15:33.267Z,62.33
2018-09-06T09:16:43.007Z,63.01
2018-09-06T09:17:52.992Z,62.33
2018-09-06T09:19:03.015Z,61.17
2018-09-06T09:20:12.992Z,59.45
2018-09-06T09:21:22.737Z,59.38
2018-09-06T09:22:32.874Z,58.34
2018-09-06T09:23:42.857Z,57.47
2018-09-06T09:24:52.824Z,57.79
2018-09-06T09:26:02.290Z,57.69
2018-09-06T09:27:12.264Z,57.6
2018-09-06T09:28:22.250Z,56.43
2018-09-06T09:29:32.288Z,56.34
2018-09-06T09:30:42.352Z,57.21
2018-09-06T09:31:52.552Z,57.18
2018-09-06T09:33:02.264Z,57.4
2018-09-06T09:34:12.015Z,56.62
2018-09-06T09:35:21.731Z,55.94
2018-09-06T09:36:31.604Z,56.82
2018-09-06T09:37:41.328Z,57.08
2018-09-06T09:38:51.081Z,56.34
2018-09-06T09:40:00.799Z,55.58
2018-09-06T09:41:10.794Z,56.72
2018-09-06T09:42:20.528Z,56.52
2018-09-06T09:43:30.516Z,56.01
2018-09-06T09:44:40.501Z,56.98
2018-09-06T09:45:50.480Z,58.25
2018-09-06T09:48:09.045Z,57.67
2018-09-06T09:49:18.811Z,58.12
2018-09-06T09:51:37.189Z,55.53
2018-09-06T09:52:47.525Z,55.07
2018-09-06T09:53:57.512Z,54.9
2018-09-06T09:55:07.274Z,55.94
2018-09-06T09:56:17.267Z,57.28
2018-09-06T09:57:26.785Z,57.34
2018-09-06T09:58:36.768Z,55.92
2018-09-06T09:59:46.749Z,55.85
2018-09-06T10:00:56.756Z,55.94
2018-09-06T10:02:06.491Z,55.82
2018-09-06T10:03:16.493Z,56.3
2018-09-06T10:04:26.485Z,57.06
2018-09-06T10:05:36.473Z,56.67
2018-09-06T10:06:46.452Z,57.08
2018-09-06T10:07:56.445Z,56.11
2018-09-06T10:09:06.200Z,57.11
2018-09-06T10:10:15.949Z,56.79
2018-09-06T10:11:25.955Z,56.89
2018-09-06T10:12:35.725Z,57.08
2018-09-06T10:13:45.713Z,57.57
2018-09-06T10:14:55.945Z,57.64
2018-09-06T10:16:06.765Z,57.34
2018-09-06T10:17:17.071Z,56.96
2018-09-06T10:18:26.898Z,56.21
2018-09-06T10:19:36.596Z,56.3
2018-09-06T10:20:46.619Z,54.68
2018-09-06T10:21:56.346Z,53.45
2018-09-06T10:23:05.812Z,52.89
2018-09-06T10:24:15.797Z,52.23
2018-09-06T10:25:25.530Z,51.55
2018-09-06T10:26:35.551Z,51.12
2018-09-06T10:27:45.299Z,50.26
2018-09-06T10:28:55.031Z,49.97
2018-09-06T10:30:05.022Z,49.29
2018-09-06T10:31:14.746Z,49.32
2018-09-06T10:32:24.755Z,49.19
2018-09-06T10:33:34.736Z,49.68
2018-09-06T10:34:44.776Z,49.39
2018-09-06T10:35:54.535Z,50.07
2018-09-06T10:37:04.606Z,51.02
2018-09-06T10:38:14.732Z,51.48
2018-09-06T10:39:24.827Z,50.24
2018-09-06T10:40:35.348Z,50.43
2018-09-06T10:41:45.846Z,50.04
2018-09-06T10:42:55.574Z,49.95
2018-09-06T10:44:05.586Z,49.46
2018-09-06T10:45:15.052Z,49.56
2018-09-06T10:46:24.783Z,50.34
2018-09-06T10:47:35.012Z,50.41
2018-09-06T10:48:44.795Z,51.26
2018-09-06T10:49:54.795Z,51.36
2018-09-06T10:51:04.595Z,50.09
2018-09-06T10:52:14.061Z,49.15
2018-09-06T10:53:23.792Z,49.46
2018-09-06T10:54:33.788Z,48.97
2018-09-06T10:55:43.759Z,48.22
2018-09-06T10:56:53.251Z,46.88
2018-09-06T10:58:02.969Z,46.78
2018-09-06T10:59:12.447Z,46.88
2018-09-06T11:00:22.441Z,46.41
2018-09-06T11:01:32.470Z,47.09
2018-09-06T11:02:42.212Z,47.46
2018-09-06T11:03:52.199Z,46.1
2018-09-06T11:05:02.394Z,46.39
2018-09-06T11:06:12.387Z,45.51
2018-09-06T11:07:22.361Z,45.44
2018-09-06T11:08:32.100Z,45.44
2018-09-06T11:09:41.848Z,45.81
2018-09-06T11:10:51.389Z,46.2
2018-09-06T11:12:01.409Z,46.93
2018-09-06T11:13:11.393Z,47.52
2018-09-06T11:14:21.376Z,46.83
2018-09-06T11:15:31.364Z,46.05
2018-09-06T11:16:41.120Z,45.2
2018-09-06T11:17:50.896Z,45.03
2018-09-06T11:19:01.092Z,45.03
2018-09-06T11:20:11.072Z,45.32
2018-09-06T11:21:20.868Z,45.61
2018-09-06T11:22:31.948Z,45.98
2018-09-06T11:23:42.938Z,46.17
2018-09-06T11:24:52.956Z,45.88
2018-09-06T11:26:02.671Z,45.59
2018-09-06T11:27:12.649Z,45.29
2018-09-06T11:28:22.651Z,45.59
2018-09-06T11:29:32.637Z,45.59
2018-09-06T11:30:42.377Z,45.29
2018-09-06T11:31:52.362Z,45.81
2018-09-06T11:33:02.338Z,45.39
2018-09-06T11:34:12.429Z,45.1
2018-09-06T11:35:22.473Z,44.07
2018-09-06T11:36:32.456Z,43.41
2018-09-06T11:37:42.451Z,42.55
2018-09-06T11:38:52.423Z,42.68
2018-09-06T11:40:02.547Z,43.92
2018-09-06T11:41:13.097Z,43.78
2018-09-06T11:42:23.128Z,44.27
2018-09-06T11:43:33.177Z,43.9
2018-09-06T11:44:42.902Z,43.22
2018-09-06T11:45:52.873Z,42.54
2018-09-06T11:47:02.756Z,42.05
2018-09-06T11:48:13.029Z,42.07
2018-09-06T11:49:23.023Z,40.92
2018-09-06T11:50:33.051Z,40.06
2018-09-06T11:51:42.802Z,38.42
2018-09-06T11:52:52.806Z,38.55
2018-09-06T11:54:02.782Z,39.8
2018-09-06T11:55:12.787Z,40.76
2018-09-06T11:56:22.782Z,42.36
2018-09-06T11:57:32.533Z,43.29
2018-09-06T11:58:42.525Z,44.34
2018-09-06T11:59:52.516Z,44.9
2018-09-06T12:01:02.241Z,43.08
2018-09-06T12:02:12.422Z,43.1
2018-09-06T12:03:22.748Z,42.73
2018-09-06T12:04:32.472Z,42.05
2018-09-06T12:05:42.450Z,42.26
2018-09-06T12:06:52.181Z,41.75
2018-09-06T12:08:02.159Z,40.8
2018-09-06T12:09:12.143Z,39.45
2018-09-06T12:10:21.875Z,38.81
2018-09-06T12:11:31.860Z,39.78
2018-09-06T12:12:41.844Z,40.94
2018-09-06T12:13:51.781Z,39.76
2018-09-06T12:15:01.510Z,39.78
2018-09-06T12:16:11.498Z,38.81
2018-09-06T12:17:21.498Z,37.87
2018-09-06T12:18:31.485Z,38.63
2018-09-06T12:19:41.486Z,39.1
2018-09-06T12:20:51.534Z,39.29
2018-09-06T12:22:01.320Z,39.76
2018-09-06T12:23:11.479Z,39.55
2018-09-06T12:24:21.281Z,39.65
2018-09-06T12:25:31.307Z,40.23
2018-09-06T12:26:40.975Z,39.65
2018-09-06T12:27:50.697Z,40.04
2018-09-06T12:29:00.692Z,40.92
2018-09-06T12:30:10.674Z,41.07
2018-09-06T12:31:20.670Z,41.46
2018-09-06T12:32:30.880Z,41.25
2018-09-06T12:33:41.306Z,41.44
2018-09-06T12:34:51.491Z,41.83
2018-09-06T12:36:01.676Z,41.81
2018-09-06T12:37:11.708Z,42.96
2018-09-06T12:38:21.917Z,43.44
2018-09-06T12:39:31.932Z,43.71
2018-09-06T12:40:41.924Z,44.2
2018-09-06T12:41:51.944Z,44.76
2018-09-06T12:43:01.931Z,44.18
2018-09-06T12:44:11.646Z,44.28
2018-09-06T12:45:21.615Z,43.99
2018-09-06T12:46:31.631Z,44.67
2018-09-06T12:47:41.611Z,43.7
2018-09-06T12:48:51.372Z,43.89
2018-09-06T12:50:01.139Z,42.65
2018-09-06T12:51:11.207Z,42.3
2018-09-06T12:52:20.961Z,42.3
2018-09-06T12:53:30.935Z,42.3
2018-09-06T12:54:40.915Z,41.71
2018-09-06T12:55:50.629Z,42.4
2018-09-06T12:57:00.628Z,42.47
2018-09-06T12:58:10.352Z,42.18
2018-09-06T12:59:20.330Z,42.47
2018-09-06T13:00:30.053Z,42.57
2018-09-06T13:01:40.038Z,42.18
2018-09-06T13:02:50.020Z,42.47
2018-09-06T13:04:00.014Z,42.38
2018-09-06T13:05:09.747Z,42.38
2018-09-06T13:06:19.729Z,42.28
2018-09-06T13:07:29.697Z,41.79
2018-09-06T13:08:39.416Z,40.93
2018-09-06T13:09:49.397Z,40.08
2018-09-06T13:10:59.373Z,39.8
2018-09-06T13:12:09.084Z,39.04
2018-09-06T13:13:19.063Z,39.14
2018-09-06T13:14:28.797Z,38.84
2018-09-06T13:15:38.777Z,38.77
2018-09-06T13:16:48.777Z,39.31
2018-09-06T13:17:58.812Z,39.41
2018-09-06T13:19:08.788Z,39.88
2018-09-06T13:20:18.780Z,40.55
2018-09-06T13:21:28.512Z,39.69
2018-09-06T13:22:38.506Z,39.29
2018-09-06T13:23:48.483Z,39.51
2018-09-06T13:24:58.468Z,40.29
2018-09-06T13:26:08.478Z,40.08
2018-09-06T13:27:18.529Z,39.41
2018-09-06T13:28:28.545Z,40.78
2018-09-06T13:29:38.526Z,40.17
2018-09-06T13:30:48.503Z,40.76
2018-09-06T13:31:58.476Z,42.1
2018-09-06T13:33:07.920Z,42.55
2018-09-06T13:34:17.635Z,42.45
2018-09-06T13:35:27.640Z,43.04
2018-09-06T13:36:37.903Z,42.55
2018-09-06T13:37:47.625Z,42.35
2018-09-06T13:38:57.340Z,42.55
2018-09-06T13:40:07.327Z,42.35
2018-09-06T13:41:17.319Z,42.74
2018-09-06T13:42:27.060Z,42.63
2018-09-06T13:43:37.269Z,42.55
2018-09-06T13:44:47.033Z,43.04
2018-09-06T13:45:56.748Z,42.35
2018-09-06T13:47:06.729Z,42.45
2018-09-06T13:48:16.741Z,42.25
2018-09-06T13:49:26.464Z,42.35
2018-09-06T13:50:36.438Z,42.45
2018-09-06T13:51:46.434Z,42.72
2018-09-06T13:52:56.162Z,42.82
2018-09-06T13:54:05.907Z,42.45
2018-09-06T13:55:15.888Z,42.35
2018-09-06T13:56:25.603Z,42.25
2018-09-06T13:57:35.603Z,42.06
2018-09-06T13:58:45.593Z,41.57
2018-09-06T13:59:55.589Z,41.11
2018-09-06T14:01:05.330Z,41.6
2018-09-06T14:02:15.308Z,42.38
2018-09-06T14:03:25.040Z,42.74
2018-09-06T14:04:35.021Z,42.82
2018-09-06T14:05:45.222Z,44.74
2018-09-06T14:06:55.506Z,44.94
2018-09-06T14:08:05.480Z,45.21
2018-09-06T14:09:14.940Z,45.6
2018-09-06T14:10:24.923Z,45.11
2018-09-06T14:11:34.909Z,44.72
2018-09-06T14:12:44.905Z,44.62
2018-09-06T14:13:54.896Z,44.72
2018-09-06T14:15:04.928Z,44.53
2018-09-06T14:16:14.910Z,44.06
2018-09-06T14:17:24.900Z,43.6
2018-09-06T14:18:34.933Z,42.74
2018-09-06T14:19:44.940Z,42.35
2018-09-06T14:20:54.413Z,42.65
2018-09-06T14:22:04.432Z,42.45
2018-09-06T14:23:14.657Z,42.16
2018-09-06T14:24:24.646Z,42.16
2018-09-06T14:25:34.629Z,42.25
2018-09-06T14:26:44.635Z,42.35
2018-09-06T14:27:54.373Z,42.08
2018-09-06T14:29:04.371Z,42.18
2018-09-06T14:30:14.370Z,42.08
2018-09-06T14:31:24.108Z,41.2
2018-09-06T14:32:34.097Z,40.55
2018-09-06T14:33:43.805Z,39.39
2018-09-06T14:34:53.286Z,39.53
2018-09-06T14:36:03.260Z,39.62
2018-09-06T14:37:12.736Z,39.04
2018-09-06T14:38:22.735Z,38.75
2018-09-06T14:39:32.801Z,38.16
2018-09-06T14:40:42.808Z,37.4
2018-09-06T14:41:52.810Z,37.22
2018-09-06T14:43:02.838Z,36.73
2018-09-06T14:44:13.039Z,36.55
2018-09-06T14:45:23.034Z,36.38
2018-09-06T14:46:33.029Z,36.18
2018-09-06T14:47:43.009Z,35.6
2018-09-06T14:48:52.485Z,35.13
2018-09-06T14:50:02.484Z,34.65
2018-09-06T14:51:12.500Z,34.38
2018-09-06T14:52:22.223Z,33.41
2018-09-06T14:53:32.422Z,33.41
2018-09-06T14:54:42.431Z,33.72
2018-09-06T14:55:52.424Z,33.51
2018-09-06T14:57:02.712Z,34.57
2018-09-06T14:58:12.443Z,35.24
2018-09-06T14:59:22.456Z,37.06
2018-09-06T15:00:32.178Z,38.3
2018-09-06T15:01:42.166Z,38.94
2018-09-06T15:02:51.891Z,40
2018-09-06T15:04:01.621Z,41.13